Dewey, Utah
Current Conditions -  °F | °C
As of 9:53 PM on Saturday 22 Nov 2014 (Local Time) from KCNY Reporting Station
Light Rain Light Rain  
Wind Chill: 33°   Ceiling: 4800
Heat Index: 39°   Visibility: 10mi
Dew Point: 34°   Wind: 8mph
Humidity: 82%   Direction: 300°WNW
Pressure: 29.82"   Gusts: NA
Location:  38.81°N, 109.3°W
Report Text: KCNY 230453Z AUTO 30007KT 10SM -RA BKN048 OVC080 04/01 A2982 RMK AO2 RAB21 SLP096 P0000 T00390011
Loading
Personal Weather Stations






























Interactive Weather Map New forecast layout! Learn more

10-Day Weather Forecast

Advertisements
Track Severe Weather on mobile